createdAt,value
2022-12-12T00:01:46.889Z,99248.94
2022-12-12T00:04:13.435Z,99256.84
2022-12-12T00:06:40.425Z,99262.13
2022-12-12T00:09:07.254Z,99268.47
2022-12-12T00:11:33.764Z,99268.38
2022-12-12T00:14:00.351Z,99271.28
2022-12-12T00:16:26.960Z,99269.75
2022-12-12T00:18:54.244Z,99267.22
2022-12-12T00:21:24.017Z,99274.53
2022-12-12T00:23:51.089Z,99269.38
2022-12-12T00:26:23.133Z,99276.34
2022-12-12T00:28:50.008Z,99281.72
2022-12-12T00:31:17.746Z,99290.59
2022-12-12T00:33:46.693Z,99291.41
2022-12-12T00:36:13.641Z,99299.53
2022-12-12T00:38:40.453Z,99306.50
2022-12-12T00:41:06.978Z,99299.81
2022-12-12T00:43:33.882Z,99302.44
2022-12-12T00:46:01.591Z,99297.03
2022-12-12T00:48:28.596Z,99303.19
2022-12-12T00:50:56.388Z,99313.69
2022-12-12T00:53:23.178Z,99311.88
2022-12-12T00:55:58.933Z,99302.44
2022-12-12T00:58:26.109Z,99300.81
2022-12-12T01:00:53.085Z,99299.13
2022-12-12T01:03:20.803Z,99294.88
2022-12-12T01:05:48.253Z,99287.13
2022-12-12T01:08:14.845Z,99294.09
2022-12-12T01:10:41.679Z,99298.69
2022-12-12T01:13:08.433Z,99298.78
2022-12-12T01:15:34.920Z,99290.03
2022-12-12T01:18:01.450Z,99294.44
2022-12-12T01:20:29.155Z,99299.91
2022-12-12T01:22:56.794Z,99300.16
2022-12-12T01:25:23.706Z,99299.56
2022-12-12T01:27:50.737Z,99299.81
2022-12-12T01:30:21.465Z,99281.28
2022-12-12T01:32:48.433Z,99282.13
2022-12-12T01:35:15.267Z,99286.47
2022-12-12T01:37:42.126Z,99278.38
2022-12-12T01:40:14.814Z,99278.38
2022-12-12T01:42:41.998Z,99276.00
2022-12-12T01:45:28.965Z,99268.94
2022-12-12T01:47:57.311Z,99268.41
2022-12-12T01:50:27.056Z,99259.06
2022-12-12T01:52:53.593Z,99258.28
2022-12-12T01:55:23.079Z,99253.03
2022-12-12T01:57:52.757Z,99255.84
2022-12-12T02:00:21.081Z,99258.66
2022-12-12T02:02:48.218Z,99264.25
2022-12-12T02:05:23.810Z,99258.31
2022-12-12T02:07:51.125Z,99257.63
2022-12-12T02:10:17.902Z,99274.28
2022-12-12T02:12:44.513Z,99277.03
2022-12-12T02:15:12.153Z,99271.91
2022-12-12T02:17:44.814Z,99282.38
2022-12-12T02:20:30.121Z,99277.13
2022-12-12T02:23:27.711Z,99291.13
2022-12-12T02:26:12.805Z,99273.69
2022-12-12T02:28:45.248Z,99278.22
2022-12-12T02:31:34.000Z,99285.44
2022-12-12T02:34:24.595Z,99282.03
2022-12-12T02:37:03.197Z,99281.94
2022-12-12T02:39:37.353Z,99287.31
2022-12-12T02:42:10.404Z,99287.22
2022-12-12T02:44:53.001Z,99289.00
2022-12-12T02:47:24.481Z,99283.47
2022-12-12T02:49:56.635Z,99289.69
2022-12-12T02:52:23.396Z,99287.31
2022-12-12T02:54:49.925Z,99303.16
2022-12-12T02:57:17.756Z,99300.00
2022-12-12T02:59:50.412Z,99297.41
2022-12-12T03:02:53.184Z,99294.03
2022-12-12T03:06:14.004Z,99298.22
2022-12-12T03:08:54.953Z,99289.50
2022-12-12T03:11:45.641Z,99289.78
2022-12-12T03:14:23.083Z,99303.28
2022-12-12T03:17:08.729Z,99301.25
2022-12-12T03:20:10.149Z,99287.81
2022-12-12T03:22:45.525Z,99302.19
2022-12-12T03:25:22.694Z,99296.25
2022-12-12T03:27:57.723Z,99307.72
2022-12-12T03:30:24.757Z,99299.97
2022-12-12T03:33:04.080Z,99298.44
2022-12-12T03:35:37.446Z,99301.84
2022-12-12T03:38:14.387Z,99307.19
2022-12-12T03:40:49.006Z,99309.75
2022-12-12T03:43:18.109Z,99326.59
2022-12-12T03:45:54.024Z,99327.75
2022-12-12T03:48:29.336Z,99338.63
2022-12-12T03:51:01.353Z,99341.41
2022-12-12T03:53:38.501Z,99348.44
2022-12-12T03:56:16.086Z,99348.78
2022-12-12T03:58:50.222Z,99351.47
2022-12-12T04:01:20.186Z,99356.69
2022-12-12T04:04:06.060Z,99362.81
2022-12-12T04:06:39.242Z,99365.59
2022-12-12T04:09:30.934Z,99372.75
2022-12-12T04:12:34.644Z,99379.31
2022-12-12T04:15:05.697Z,99376.22
2022-12-12T04:17:42.579Z,99386.94
2022-12-12T04:20:33.764Z,99386.38
2022-12-12T04:23:24.425Z,99396.53
2022-12-12T04:26:31.829Z,99399.16
2022-12-12T04:29:13.318Z,99393.03
2022-12-12T04:31:46.371Z,99398.47
2022-12-12T04:34:25.877Z,99399.69
2022-12-12T04:36:53.274Z,99400.91
2022-12-12T04:39:21.768Z,99393.09
2022-12-12T04:41:50.977Z,99396.13
2022-12-12T04:44:20.513Z,99395.94
2022-12-12T04:46:52.022Z,99400.38
2022-12-12T04:49:24.666Z,99404.03
2022-12-12T04:51:56.499Z,99416.22
2022-12-12T04:54:36.800Z,99423.13
2022-12-12T04:57:07.658Z,99417.00
2022-12-12T04:59:34.787Z,99420.72
2022-12-12T05:02:24.712Z,99413.56
2022-12-12T05:04:53.836Z,99420.06
2022-12-12T05:07:48.323Z,99410.56
2022-12-12T05:10:17.661Z,99425.84
2022-12-12T05:12:47.681Z,99415.44
2022-12-12T05:15:16.543Z,99424.69
2022-12-12T05:17:47.511Z,99428.81
2022-12-12T05:20:15.627Z,99435.78
2022-12-12T05:22:42.237Z,99436.03
2022-12-12T05:25:09.395Z,99451.16
2022-12-12T05:27:36.358Z,99447.56
2022-12-12T05:30:03.080Z,99444.56
2022-12-12T05:32:29.665Z,99442.50
2022-12-12T05:34:56.164Z,99448.34
2022-12-12T05:37:22.852Z,99446.31
2022-12-12T05:39:49.417Z,99448.50
2022-12-12T05:42:15.996Z,99453.28
2022-12-12T05:44:42.813Z,99454.16
2022-12-12T05:47:09.354Z,99454.28
2022-12-12T05:49:35.916Z,99457.16
2022-12-12T05:52:02.478Z,99468.06
2022-12-12T05:54:29.090Z,99462.97
2022-12-12T05:56:55.586Z,99468.59
2022-12-12T05:59:22.154Z,99461.84
2022-12-12T06:01:48.681Z,99464.56
2022-12-12T06:04:15.495Z,99470.25
2022-12-12T06:06:42.173Z,99473.31
2022-12-12T06:09:08.676Z,99469.84
2022-12-12T06:11:35.158Z,99482.22
2022-12-12T06:14:01.645Z,99477.75
2022-12-12T06:16:28.119Z,99484.22
2022-12-12T06:18:55.708Z,99491.56
2022-12-12T06:21:23.242Z,99496.19
2022-12-12T06:23:50.070Z,99491.69
2022-12-12T06:26:19.444Z,99490.84
2022-12-12T06:28:46.722Z,99496.41
2022-12-12T06:31:14.914Z,99503.78
2022-12-12T06:33:42.721Z,99503.38
2022-12-12T06:36:12.775Z,99514.03
2022-12-12T06:38:40.483Z,99520.56
2022-12-12T06:41:12.516Z,99517.72
2022-12-12T06:43:40.069Z,99514.59
2022-12-12T06:46:08.789Z,99521.13
2022-12-12T06:48:36.438Z,99526.47
2022-12-12T06:51:08.145Z,99531.16
2022-12-12T06:53:37.196Z,99528.66
2022-12-12T06:56:13.553Z,99537.69
2022-12-12T06:58:40.331Z,99532.50
2022-12-12T07:01:07.455Z,99536.88
2022-12-12T07:03:34.437Z,99535.84
2022-12-12T07:06:01.377Z,99532.66
2022-12-12T07:08:30.956Z,99534.72
2022-12-12T07:11:04.147Z,99532.63
2022-12-12T07:13:31.285Z,99538.66
2022-12-12T07:15:58.071Z,99535.72
2022-12-12T07:18:24.725Z,99547.69
2022-12-12T07:20:51.261Z,99548.56
2022-12-12T07:23:18.331Z,99552.94
2022-12-12T07:25:44.901Z,99548.47
2022-12-12T07:28:13.325Z,99548.38
2022-12-12T07:30:42.113Z,99550.03
2022-12-12T07:33:09.577Z,99556.75
2022-12-12T07:35:36.249Z,99553.00
2022-12-12T07:38:04.357Z,99553.72
2022-12-12T07:40:31.811Z,99559.56
2022-12-12T07:42:59.522Z,99555.72
2022-12-12T07:45:26.267Z,99565.66
2022-12-12T07:47:53.628Z,99562.53
2022-12-12T07:50:20.764Z,99561.13
2022-12-12T07:52:47.313Z,99559.38
2022-12-12T07:55:14.229Z,99560.31
2022-12-12T07:57:41.457Z,99546.19
2022-12-12T08:00:10.188Z,99554.25
2022-12-12T08:02:36.714Z,99562.38
2022-12-12T08:05:03.317Z,99564.38
2022-12-12T08:07:29.869Z,99569.22
2022-12-12T08:09:56.401Z,99571.22
2022-12-12T08:12:23.517Z,99578.97
2022-12-12T08:14:50.093Z,99581.41
2022-12-12T08:17:16.619Z,99575.19
2022-12-12T08:19:43.132Z,99582.00
2022-12-12T08:22:09.674Z,99570.66
2022-12-12T08:24:36.182Z,99576.34
2022-12-12T08:27:02.739Z,99572.50
2022-12-12T08:29:29.356Z,99579.94
2022-12-12T08:31:55.940Z,99590.69
2022-12-12T08:34:22.580Z,99581.84
2022-12-12T08:36:49.300Z,99580.63
2022-12-12T08:39:17.081Z,99586.78
2022-12-12T08:41:50.117Z,99587.09
2022-12-12T08:44:19.928Z,99566.03
2022-12-12T08:46:47.095Z,99565.88
2022-12-12T08:49:13.802Z,99562.00
2022-12-12T08:51:41.340Z,99559.25
2022-12-12T08:54:10.025Z,99554.59
2022-12-12T08:56:36.616Z,99556.97
2022-12-12T08:59:03.301Z,99558.34
2022-12-12T09:01:29.859Z,99557.75
2022-12-12T09:03:57.632Z,99557.75
2022-12-12T09:06:26.037Z,99562.72
2022-12-12T09:08:53.493Z,99554.69
2022-12-12T09:11:20.017Z,99547.16
2022-12-12T09:13:46.849Z,99550.69
2022-12-12T09:16:13.540Z,99550.13
2022-12-12T09:18:47.735Z,99562.13
2022-12-12T09:21:15.128Z,99556.44
2022-12-12T09:23:41.685Z,99555.91
2022-12-12T09:26:09.010Z,99568.88
2022-12-12T09:28:36.413Z,99570.31
2022-12-12T09:31:07.960Z,99577.91
2022-12-12T09:33:35.380Z,99580.19
2022-12-12T09:36:05.138Z,99583.66
2022-12-12T09:38:32.130Z,99577.63
2022-12-12T09:41:02.739Z,99578.72
2022-12-12T09:43:36.877Z,99577.66
2022-12-12T09:46:14.043Z,99566.41
2022-12-12T09:48:44.577Z,99562.69
2022-12-12T09:51:13.654Z,99565.47
2022-12-12T09:53:43.623Z,99565.56
2022-12-12T09:56:19.481Z,99566.03
2022-12-12T09:59:37.346Z,99577.25
2022-12-12T10:02:09.550Z,99582.47
2022-12-12T10:04:47.874Z,99588.81
2022-12-12T10:07:24.022Z,99578.63
2022-12-12T10:10:03.700Z,99570.53
2022-12-12T10:12:31.844Z,99567.22
2022-12-12T10:15:07.828Z,99575.38
2022-12-12T10:17:42.892Z,99573.75
2022-12-12T10:20:27.650Z,99569.13
2022-12-12T10:23:12.880Z,99581.97
2022-12-12T10:25:58.737Z,99570.81
2022-12-12T10:28:27.957Z,99580.88
2022-12-12T10:31:22.240Z,99580.84
2022-12-12T10:33:57.842Z,99591.00
2022-12-12T10:36:46.110Z,99622.72
2022-12-12T10:39:36.789Z,99610.97
2022-12-12T10:42:30.832Z,99613.91
2022-12-12T10:45:13.994Z,99619.91
2022-12-12T10:47:41.218Z,99619.84
2022-12-12T10:50:13.286Z,99615.91
2022-12-12T10:52:39.980Z,99608.56
2022-12-12T10:55:21.145Z,99606.13
2022-12-12T10:57:47.699Z,99622.38
2022-12-12T11:00:39.692Z,99615.59
2022-12-12T11:03:29.350Z,99612.38
2022-12-12T11:05:57.104Z,99599.81
2022-12-12T11:08:30.236Z,99600.59
2022-12-12T11:11:01.308Z,99592.22
2022-12-12T11:13:28.164Z,99586.50
2022-12-12T11:16:13.056Z,99590.75
2022-12-12T11:18:40.240Z,99588.06
2022-12-12T11:21:10.874Z,99608.09
2022-12-12T11:23:47.601Z,99597.34
2022-12-12T11:26:18.943Z,99618.03
2022-12-12T11:28:51.927Z,99607.97
2022-12-12T11:31:23.171Z,99618.81
2022-12-12T11:33:57.211Z,99624.84
2022-12-12T11:36:31.976Z,99631.03
2022-12-12T11:39:00.504Z,99645.53
2022-12-12T11:41:27.117Z,99646.44
2022-12-12T11:43:58.102Z,99652.34
2022-12-12T11:46:28.813Z,99653.75
2022-12-12T11:48:59.304Z,99646.47
2022-12-12T11:51:44.096Z,99647.41
2022-12-12T11:54:29.307Z,99656.88
2022-12-12T11:57:14.766Z,99673.81
2022-12-12T11:59:59.840Z,99670.22
2022-12-12T12:02:45.224Z,99667.66
2022-12-12T12:05:23.752Z,99684.22
2022-12-12T12:08:28.866Z,99666.44
2022-12-12T12:11:17.222Z,99661.03
2022-12-12T12:13:58.993Z,99667.44
2022-12-12T12:16:46.852Z,99664.88
2022-12-12T12:19:30.203Z,99656.28
2022-12-12T12:21:56.711Z,99665.13
2022-12-12T12:24:44.972Z,99647.41
2022-12-12T12:27:33.336Z,99664.22
2022-12-12T12:30:17.217Z,99659.84
2022-12-12T12:32:46.438Z,99662.91
2022-12-12T12:35:28.869Z,99671.34
2022-12-12T12:38:01.149Z,99666.00
2022-12-12T12:41:09.252Z,99658.84
2022-12-12T12:43:47.789Z,99652.00
2022-12-12T12:46:32.354Z,99651.31
2022-12-12T12:49:27.393Z,99654.97
2022-12-12T12:51:59.194Z,99653.00
2022-12-12T12:54:33.028Z,99663.97
2022-12-12T12:57:27.960Z,99672.53
2022-12-12T13:00:00.276Z,99665.13
2022-12-12T13:02:37.311Z,99664.38
2022-12-12T13:05:18.993Z,99660.78
2022-12-12T13:07:52.269Z,99668.38
2022-12-12T13:10:25.102Z,99670.59
2022-12-12T13:12:59.806Z,99681.06
2022-12-12T13:15:29.049Z,99671.41
2022-12-12T13:18:04.649Z,99683.09
2022-12-12T13:20:37.996Z,99685.44
2022-12-12T13:23:07.509Z,99676.94
2022-12-12T13:26:24.741Z,99668.44
2022-12-12T13:29:00.447Z,99677.22
2022-12-12T13:31:30.052Z,99684.38
2022-12-12T13:34:04.155Z,99686.44
2022-12-12T13:36:38.681Z,99685.69
2022-12-12T13:39:07.273Z,99694.31
2022-12-12T13:41:53.593Z,99691.25
2022-12-12T13:44:40.648Z,99683.44
2022-12-12T13:47:35.217Z,99690.31
2022-12-12T13:50:10.776Z,99677.03
2022-12-12T13:52:42.451Z,99690.88
2022-12-12T13:55:12.625Z,99695.41
2022-12-12T13:57:59.867Z,99686.78
2022-12-12T14:00:35.324Z,99688.66
2022-12-12T14:03:10.754Z,99685.38
2022-12-12T14:05:48.344Z,99692.13
2022-12-12T14:08:14.886Z,99683.09
2022-12-12T14:10:45.687Z,99676.34
2022-12-12T14:13:40.264Z,99689.72
2022-12-12T14:16:19.876Z,99677.06
2022-12-12T14:18:49.229Z,99681.59
2022-12-12T14:21:18.453Z,99683.38
2022-12-12T14:23:53.201Z,99682.56
2022-12-12T14:26:28.922Z,99676.81
2022-12-12T14:29:17.264Z,99688.41
2022-12-12T14:32:03.893Z,99695.59
2022-12-12T14:34:45.694Z,99692.03
2022-12-12T14:37:51.821Z,99688.16
2022-12-12T14:40:21.477Z,99706.03
2022-12-12T14:43:15.692Z,99697.88
2022-12-12T14:45:40.245Z,99695.03
2022-12-12T14:48:29.386Z,99688.69
2022-12-12T14:51:09.129Z,99706.94
2022-12-12T14:53:38.571Z,99703.84
2022-12-12T14:56:25.101Z,99701.75
2022-12-12T14:58:59.906Z,99703.06
2022-12-12T15:01:29.245Z,99712.13
2022-12-12T15:03:59.028Z,99721.28
2022-12-12T15:06:39.272Z,99704.75
2022-12-12T15:09:24.683Z,99720.78
2022-12-12T15:11:53.704Z,99723.59
2022-12-12T15:14:25.792Z,99721.84
2022-12-12T15:16:58.337Z,99733.28
2022-12-12T15:19:34.310Z,99727.25
2022-12-12T15:22:00.965Z,99735.16
2022-12-12T15:24:37.151Z,99741.78
2022-12-12T15:27:05.813Z,99741.00
2022-12-12T15:29:33.457Z,99750.16
2022-12-12T15:32:03.950Z,99748.44
2022-12-12T15:34:34.895Z,99749.84
2022-12-12T15:37:17.625Z,99759.22
2022-12-12T15:39:45.215Z,99753.00
2022-12-12T15:42:14.465Z,99760.97
2022-12-12T15:44:46.240Z,99761.53
2022-12-12T15:47:15.893Z,99766.53
2022-12-12T15:49:44.417Z,99771.50
2022-12-12T15:52:21.258Z,99767.16
2022-12-12T15:54:50.809Z,99767.28
2022-12-12T15:57:20.194Z,99764.97
2022-12-12T15:59:53.680Z,99771.00
2022-12-12T16:02:25.733Z,99756.19
2022-12-12T16:05:20.590Z,99766.47
2022-12-12T16:07:47.134Z,99762.19
2022-12-12T16:10:13.743Z,99768.63
2022-12-12T16:12:57.245Z,99770.88
2022-12-12T16:15:33.694Z,99773.91
2022-12-12T16:18:27.940Z,99780.19
2022-12-12T16:20:56.814Z,99784.84
2022-12-12T16:23:28.122Z,99779.69
2022-12-12T16:25:54.987Z,99776.78
2022-12-12T16:28:27.885Z,99766.16
2022-12-12T16:31:00.987Z,99771.34
2022-12-12T16:33:37.542Z,99779.69
2022-12-12T16:36:10.366Z,99770.63
2022-12-12T16:38:40.125Z,99778.81
2022-12-12T16:41:13.427Z,99765.53
2022-12-12T16:43:40.672Z,99767.69
2022-12-12T16:46:18.291Z,99763.72
2022-12-12T16:48:44.866Z,99772.59
2022-12-12T16:51:16.285Z,99773.84
2022-12-12T16:53:42.826Z,99774.78
2022-12-12T16:56:12.250Z,99768.00
2022-12-12T16:58:39.112Z,99772.75
2022-12-12T17:01:06.357Z,99775.91
2022-12-12T17:03:33.041Z,99773.97
2022-12-12T17:06:00.514Z,99768.88
2022-12-12T17:08:28.082Z,99781.69
2022-12-12T17:11:10.509Z,99785.72
2022-12-12T17:13:41.056Z,99779.81
2022-12-12T17:16:07.709Z,99781.50
2022-12-12T17:18:34.286Z,99793.00
2022-12-12T17:21:00.832Z,99787.88
2022-12-12T17:23:27.481Z,99793.31
2022-12-12T17:25:59.083Z,99796.97
2022-12-12T17:28:30.096Z,99803.31
2022-12-12T17:30:56.597Z,99807.75
2022-12-12T17:33:23.273Z,99799.75
2022-12-12T17:36:01.195Z,99812.81
2022-12-12T17:38:28.211Z,99813.22
2022-12-12T17:40:56.701Z,99806.53
2022-12-12T17:43:25.077Z,99817.38
2022-12-12T17:46:05.835Z,99819.47
2022-12-12T17:48:34.787Z,99816.13
2022-12-12T17:51:04.783Z,99818.75
2022-12-12T17:53:36.704Z,99829.38
2022-12-12T17:56:08.735Z,99832.19
2022-12-12T17:58:37.231Z,99834.97
2022-12-12T18:01:22.911Z,99835.06
2022-12-12T18:03:50.392Z,99835.13
2022-12-12T18:06:18.369Z,99833.41
2022-12-12T18:08:45.719Z,99830.91
2022-12-12T18:11:15.532Z,99835.63
2022-12-12T18:13:42.909Z,99833.91
2022-12-12T18:16:12.744Z,99843.97
2022-12-12T18:18:40.207Z,99849.31
2022-12-12T18:21:43.386Z,99843.41
2022-12-12T18:24:06.868Z,99849.75
2022-12-12T18:26:33.621Z,99849.81
2022-12-12T18:29:02.886Z,99846.34
2022-12-12T18:31:30.200Z,99844.69
2022-12-12T18:33:57.617Z,99844.91
2022-12-12T18:36:27.441Z,99850.25
2022-12-12T18:38:55.960Z,99845.03
2022-12-12T18:41:24.492Z,99848.69
2022-12-12T18:43:51.059Z,99851.38
2022-12-12T18:46:20.568Z,99846.19
2022-12-12T18:48:48.725Z,99848.84
2022-12-12T18:51:18.513Z,99856.75
2022-12-12T18:53:45.519Z,99855.88
2022-12-12T18:56:21.035Z,99857.59
2022-12-12T18:58:48.929Z,99861.22
2022-12-12T19:01:18.786Z,99857.81
2022-12-12T19:03:48.900Z,99867.44
2022-12-12T19:06:18.373Z,99869.22
2022-12-12T19:08:45.066Z,99870.00
2022-12-12T19:11:13.319Z,99874.94
2022-12-12T19:13:40.097Z,99875.88
2022-12-12T19:16:16.528Z,99880.88
2022-12-12T19:18:44.277Z,99879.94
2022-12-12T19:21:14.593Z,99877.28
2022-12-12T19:23:41.485Z,99898.13
2022-12-12T19:26:12.024Z,99895.25
2022-12-12T19:28:38.911Z,99901.41
2022-12-12T19:31:11.666Z,99900.53
2022-12-12T19:33:38.801Z,99906.53
2022-12-12T19:36:20.042Z,99914.25
2022-12-12T19:38:47.589Z,99914.25
2022-12-12T19:41:16.832Z,99918.84
2022-12-12T19:43:45.087Z,99923.38
2022-12-12T19:46:17.486Z,99916.44
2022-12-12T19:48:44.577Z,99920.09
2022-12-12T19:51:12.519Z,99922.78
2022-12-12T19:53:42.057Z,99927.00
2022-12-12T19:56:11.359Z,99925.06
2022-12-12T19:58:38.903Z,99926.72
2022-12-12T20:01:10.869Z,99925.53
2022-12-12T20:03:37.950Z,99935.56
2022-12-12T20:06:06.998Z,99938.50
2022-12-12T20:08:35.677Z,99948.66
2022-12-12T20:11:06.642Z,99951.34
2022-12-12T20:13:33.741Z,99947.06
2022-12-12T20:16:11.252Z,99952.56
2022-12-12T20:18:38.417Z,99955.13
2022-12-12T20:21:05.692Z,99956.09
2022-12-12T20:23:35.293Z,99958.75
2022-12-12T20:26:06.544Z,99955.22
2022-12-12T20:28:33.961Z,99958.75
2022-12-12T20:31:05.765Z,99965.19
2022-12-12T20:33:32.731Z,99966.25
2022-12-12T20:36:07.823Z,99967.22
2022-12-12T20:38:36.120Z,99967.88
2022-12-12T20:41:09.811Z,99961.53
2022-12-12T20:43:36.580Z,99962.28
2022-12-12T20:46:18.527Z,99962.34
2022-12-12T20:48:46.191Z,99960.63
2022-12-12T20:51:53.000Z,99953.19
2022-12-12T20:54:06.365Z,99957.69
2022-12-12T20:56:33.505Z,99955.19
2022-12-12T20:59:02.708Z,99952.53
2022-12-12T21:01:32.012Z,99957.63
2022-12-12T21:03:59.926Z,99957.41
2022-12-12T21:06:29.283Z,99954.25
2022-12-12T21:08:56.105Z,99957.00
2022-12-12T21:11:25.508Z,99958.53
2022-12-12T21:13:53.472Z,99960.19
2022-12-12T21:16:23.498Z,99961.19
2022-12-12T21:18:51.962Z,99958.97
2022-12-12T21:21:19.095Z,99956.41
2022-12-12T21:23:47.186Z,99965.75
2022-12-12T21:26:25.201Z,99958.75
2022-12-12T21:28:55.700Z,99961.91
2022-12-12T21:31:28.286Z,99967.53
2022-12-12T21:33:55.046Z,99966.81
2022-12-12T21:36:23.405Z,99967.75
2022-12-12T21:38:51.647Z,99979.38
2022-12-12T21:41:20.269Z,99973.31
2022-12-12T21:43:48.845Z,99975.31
2022-12-12T21:46:20.857Z,99977.94
2022-12-12T21:49:07.999Z,99984.72
2022-12-12T21:51:35.341Z,99977.78
2022-12-12T21:54:04.093Z,99978.22
2022-12-12T21:56:31.092Z,99985.34
2022-12-12T21:58:58.558Z,99995.16
2022-12-12T22:01:25.760Z,99990.06
2022-12-12T22:03:53.537Z,99986.59
2022-12-12T22:06:23.326Z,99983.25
2022-12-12T22:08:50.336Z,99984.94
2022-12-12T22:11:34.349Z,99981.41
2022-12-12T22:14:06.366Z,99978.63
2022-12-12T22:16:33.831Z,99975.22
2022-12-12T22:19:06.298Z,99979.56
2022-12-12T22:21:33.661Z,99972.28
2022-12-12T22:24:00.969Z,99971.09
2022-12-12T22:26:30.229Z,99977.38
2022-12-12T22:28:59.555Z,99979.16
2022-12-12T22:31:28.805Z,99979.31
2022-12-12T22:34:04.107Z,99974.31
2022-12-12T22:36:32.941Z,99983.53
2022-12-12T22:39:01.200Z,99967.91
2022-12-12T22:41:29.387Z,99977.94
2022-12-12T22:44:01.084Z,99981.88
2022-12-12T22:46:28.927Z,99987.50
2022-12-12T22:48:57.468Z,99981.84
2022-12-12T22:51:26.897Z,99979.28
2022-12-12T22:53:56.605Z,99985.53
2022-12-12T22:56:23.707Z,99984.78
2022-12-12T22:58:51.656Z,99985.81
2022-12-12T23:01:20.772Z,99994.94
2022-12-12T23:03:48.248Z,99988.72
2022-12-12T23:06:14.697Z,99987.63
2022-12-12T23:08:42.585Z,99992.78
2022-12-12T23:11:16.016Z,99994.06
2022-12-12T23:13:44.357Z,100002.25
2022-12-12T23:16:16.404Z,99998.91
2022-12-12T23:18:43.278Z,100002.75
2022-12-12T23:21:16.733Z,100008.53
2022-12-12T23:23:44.173Z,100002.53
2022-12-12T23:26:14.144Z,100003.16
2022-12-12T23:28:41.575Z,100006.94
2022-12-12T23:31:10.658Z,100010.81
2022-12-12T23:33:37.345Z,100012.03
2022-12-12T23:36:05.453Z,100016.03
2022-12-12T23:38:31.938Z,100010.22
2022-12-12T23:41:02.660Z,100015.78
2022-12-12T23:43:29.207Z,100011.34
2022-12-12T23:45:55.759Z,100012.31
2022-12-12T23:48:22.284Z,100006.63
2022-12-12T23:50:48.840Z,100019.28
2022-12-12T23:53:15.644Z,100015.97
2022-12-12T23:55:42.153Z,100006.63
2022-12-12T23:58:08.620Z,100011.16
